sensor_id;sensor_type;location;lat;lon;timestamp;pressure;altitude;pressure_sealevel;temperature;humidity
54554;BME280;40450;55.848;-3.572;2022-11-04T00:02:02;98287.42;;;3.90;83.28
54554;BME280;40450;55.848;-3.572;2022-11-04T00:04:32;98289.48;;;3.69;83.83
54554;BME280;40450;55.848;-3.572;2022-11-04T00:07:03;98291.15;;;4.56;81.76
54554;BME280;40450;55.848;-3.572;2022-11-04T00:09:33;98293.19;;;4.66;79.78
54554;BME280;40450;55.848;-3.572;2022-11-04T00:12:04;98295.76;;;4.68;79.42
54554;BME280;40450;55.848;-3.572;2022-11-04T00:14:35;98302.27;;;4.27;80.55
54554;BME280;40450;55.848;-3.572;2022-11-04T00:17:04;98303.98;;;3.83;82.06
54554;BME280;40450;55.848;-3.572;2022-11-04T00:19:35;98303.27;;;3.88;81.83
54554;BME280;40450;55.848;-3.572;2022-11-04T00:22:06;98298.96;;;4.03;80.67
54554;BME280;40450;55.848;-3.572;2022-11-04T00:24:36;98295.90;;;4.33;80.25
54554;BME280;40450;55.848;-3.572;2022-11-04T00:27:07;98305.19;;;4.54;80.05
54554;BME280;40450;55.848;-3.572;2022-11-04T00:29:37;98311.33;;;4.27;79.37
54554;BME280;40450;55.848;-3.572;2022-11-04T00:32:08;98310.59;;;4.07;79.84
54554;BME280;40450;55.848;-3.572;2022-11-04T00:34:37;98306.78;;;3.86;80.41
54554;BME280;40450;55.848;-3.572;2022-11-04T00:37:08;98313.74;;;3.59;81.48
54554;BME280;40450;55.848;-3.572;2022-11-04T00:39:38;98319.55;;;3.62;81.40
54554;BME280;40450;55.848;-3.572;2022-11-04T00:42:09;98321.42;;;4.35;80.96
54554;BME280;40450;55.848;-3.572;2022-11-04T00:44:39;98316.45;;;4.29;79.72
54554;BME280;40450;55.848;-3.572;2022-11-04T00:47:10;98318.34;;;3.87;79.72
54554;BME280;40450;55.848;-3.572;2022-11-04T00:49:40;98327.92;;;4.53;79.24
54554;BME280;40450;55.848;-3.572;2022-11-04T00:52:11;98333.83;;;4.33;79.49
54554;BME280;40450;55.848;-3.572;2022-11-04T00:54:41;98343.99;;;4.60;78.84
54554;BME280;40450;55.848;-3.572;2022-11-04T00:57:12;98348.93;;;5.52;79.67
54554;BME280;40450;55.848;-3.572;2022-11-04T00:59:42;98354.55;;;4.92;78.65
54554;BME280;40450;55.848;-3.572;2022-11-04T01:02:13;98355.60;;;4.01;80.49
54554;BME280;40450;55.848;-3.572;2022-11-04T01:04:43;98357.69;;;3.27;82.07
54554;BME280;40450;55.848;-3.572;2022-11-04T01:07:13;98350.77;;;3.19;82.72
54554;BME280;40450;55.848;-3.572;2022-11-04T01:09:44;98343.42;;;2.91;83.48
54554;BME280;40450;55.848;-3.572;2022-11-04T01:12:14;98340.53;;;3.06;83.07
54554;BME280;40450;55.848;-3.572;2022-11-04T01:14:45;98344.58;;;3.04;83.53
54554;BME280;40450;55.848;-3.572;2022-11-04T01:17:15;98343.63;;;3.62;82.15
54554;BME280;40450;55.848;-3.572;2022-11-04T01:19:46;98346.57;;;4.40;81.63
54554;BME280;40450;55.848;-3.572;2022-11-04T01:22:16;98350.88;;;4.56;79.44
54554;BME280;40450;55.848;-3.572;2022-11-04T01:24:51;98352.91;;;5.06;78.43
54554;BME280;40450;55.848;-3.572;2022-11-04T01:27:17;98346.44;;;4.50;76.60
54554;BME280;40450;55.848;-3.572;2022-11-04T01:29:47;98348.82;;;4.09;78.38
54554;BME280;40450;55.848;-3.572;2022-11-04T01:32:18;98352.71;;;3.24;80.15
54554;BME280;40450;55.848;-3.572;2022-11-04T01:34:48;98355.02;;;3.75;79.25
54554;BME280;40450;55.848;-3.572;2022-11-04T01:37:19;98355.47;;;3.57;79.73
54554;BME280;40450;55.848;-3.572;2022-11-04T01:39:49;98356.49;;;3.24;80.61
54554;BME280;40450;55.848;-3.572;2022-11-04T01:42:21;98360.31;;;2.31;83.85
54554;BME280;40450;55.848;-3.572;2022-11-04T01:44:54;98364.80;;;1.77;85.43
54554;BME280;40450;55.848;-3.572;2022-11-04T01:47:25;98371.00;;;2.27;84.59
54554;BME280;40450;55.848;-3.572;2022-11-04T01:49:53;98380.84;;;1.99;84.94
54554;BME280;40450;55.848;-3.572;2022-11-04T01:52:27;98395.10;;;1.94;84.83
54554;BME280;40450;55.848;-3.572;2022-11-04T01:54:56;98396.00;;;1.43;85.96
54554;BME280;40450;55.848;-3.572;2022-11-04T01:57:26;98402.19;;;1.11;86.91
54554;BME280;40450;55.848;-3.572;2022-11-04T01:59:54;98411.72;;;1.08;86.68
54554;BME280;40450;55.848;-3.572;2022-11-04T02:02:24;98414.94;;;1.55;85.84
54554;BME280;40450;55.848;-3.572;2022-11-04T02:04:54;98418.08;;;1.92;84.80
54554;BME280;40450;55.848;-3.572;2022-11-04T02:07:25;98426.52;;;1.76;85.37
54554;BME280;40450;55.848;-3.572;2022-11-04T02:09:55;98431.58;;;1.12;86.62
54554;BME280;40450;55.848;-3.572;2022-11-04T02:12:25;98436.05;;;0.84;87.34
54554;BME280;40450;55.848;-3.572;2022-11-04T02:14:57;98443.79;;;1.30;86.81
54554;BME280;40450;55.848;-3.572;2022-11-04T02:17:35;98450.94;;;1.28;87.19
54554;BME280;40450;55.848;-3.572;2022-11-04T02:20:08;98449.64;;;1.46;87.20
54554;BME280;40450;55.848;-3.572;2022-11-04T02:25:10;98449.08;;;2.21;85.10
54554;BME280;40450;55.848;-3.572;2022-11-04T02:27:36;98457.05;;;3.36;82.27
54554;BME280;40450;55.848;-3.572;2022-11-04T02:30:06;98457.62;;;3.66;80.86
54554;BME280;40450;55.848;-3.572;2022-11-04T02:32:38;98455.72;;;3.19;81.54
54554;BME280;40450;55.848;-3.572;2022-11-04T02:35:02;98455.30;;;2.98;81.92
54554;BME280;40450;55.848;-3.572;2022-11-04T02:37:37;98459.40;;;2.23;83.69
54554;BME280;40450;55.848;-3.572;2022-11-04T02:40:11;98464.89;;;2.09;84.73
54554;BME280;40450;55.848;-3.572;2022-11-04T02:42:36;98470.63;;;1.70;85.70
54554;BME280;40450;55.848;-3.572;2022-11-04T02:45:11;98471.40;;;1.72;85.78
54554;BME280;40450;55.848;-3.572;2022-11-04T02:47:32;98472.01;;;2.09;84.61
54554;BME280;40450;55.848;-3.572;2022-11-04T02:50:06;98475.14;;;1.91;86.57
54554;BME280;40450;55.848;-3.572;2022-11-04T02:52:38;98481.92;;;1.87;85.97
54554;BME280;40450;55.848;-3.572;2022-11-04T02:55:06;98480.83;;;2.12;86.48
54554;BME280;40450;55.848;-3.572;2022-11-04T02:57:35;98479.86;;;2.98;85.62
54554;BME280;40450;55.848;-3.572;2022-11-04T03:00:06;98480.78;;;3.18;85.00
54554;BME280;40450;55.848;-3.572;2022-11-04T03:02:38;98483.46;;;2.88;86.16
54554;BME280;40450;55.848;-3.572;2022-11-04T03:05:06;98485.43;;;2.99;86.52
54554;BME280;40450;55.848;-3.572;2022-11-04T03:07:38;98484.96;;;3.30;86.28
54554;BME280;40450;55.848;-3.572;2022-11-04T03:10:09;98483.15;;;3.56;86.03
54554;BME280;40450;55.848;-3.572;2022-11-04T03:12:43;98477.79;;;3.82;85.63
54554;BME280;40450;55.848;-3.572;2022-11-04T03:15:09;98477.59;;;2.78;88.63
54554;BME280;40450;55.848;-3.572;2022-11-04T03:17:42;98480.76;;;2.97;87.88
54554;BME280;40450;55.848;-3.572;2022-11-04T03:20:14;98483.20;;;2.81;88.47
54554;BME280;40450;55.848;-3.572;2022-11-04T03:22:38;98487.36;;;3.43;87.00
54554;BME280;40450;55.848;-3.572;2022-11-04T03:25:09;98488.04;;;4.81;84.48
54554;BME280;40450;55.848;-3.572;2022-11-04T03:27:43;98491.65;;;4.52;82.92
54554;BME280;40450;55.848;-3.572;2022-11-04T03:30:12;98491.91;;;4.67;81.72
54554;BME280;40450;55.848;-3.572;2022-11-04T03:32:43;98489.57;;;4.84;81.62
54554;BME280;40450;55.848;-3.572;2022-11-04T03:35:11;98491.51;;;4.73;79.70
54554;BME280;40450;55.848;-3.572;2022-11-04T03:37:41;98493.54;;;5.12;78.83
54554;BME280;40450;55.848;-3.572;2022-11-04T03:40:11;98501.03;;;5.03;77.96
54554;BME280;40450;55.848;-3.572;2022-11-04T03:42:45;98505.28;;;4.81;78.43
54554;BME280;40450;55.848;-3.572;2022-11-04T03:45:12;98512.73;;;4.99;76.34
54554;BME280;40450;55.848;-3.572;2022-11-04T03:47:43;98517.74;;;3.77;80.17
54554;BME280;40450;55.848;-3.572;2022-11-04T03:50:18;98515.63;;;3.75;80.21
54554;BME280;40450;55.848;-3.572;2022-11-04T03:52:43;98521.75;;;3.89;79.72
54554;BME280;40450;55.848;-3.572;2022-11-04T03:55:14;98523.74;;;3.75;79.84
54554;BME280;40450;55.848;-3.572;2022-11-04T03:57:48;98523.41;;;3.61;79.91
54554;BME280;40450;55.848;-3.572;2022-11-04T04:00:16;98522.51;;;2.97;81.26
54554;BME280;40450;55.848;-3.572;2022-11-04T04:02:54;98525.57;;;2.62;82.07
54554;BME280;40450;55.848;-3.572;2022-11-04T04:05:20;98526.26;;;3.11;80.56
54554;BME280;40450;55.848;-3.572;2022-11-04T04:07:50;98527.98;;;2.99;81.31
54554;BME280;40450;55.848;-3.572;2022-11-04T04:10:20;98530.96;;;3.55;80.52
54554;BME280;40450;55.848;-3.572;2022-11-04T04:12:47;98533.20;;;3.72;80.46
54554;BME280;40450;55.848;-3.572;2022-11-04T04:15:20;98540.83;;;3.27;80.64
54554;BME280;40450;55.848;-3.572;2022-11-04T04:17:51;98546.87;;;3.15;80.57
54554;BME280;40450;55.848;-3.572;2022-11-04T04:20:20;98557.46;;;1.64;84.11
54554;BME280;40450;55.848;-3.572;2022-11-04T04:22:52;98558.17;;;0.94;86.28
54554;BME280;40450;55.848;-3.572;2022-11-04T04:25:21;98566.49;;;0.92;86.86
54554;BME280;40450;55.848;-3.572;2022-11-04T04:27:50;98568.59;;;0.47;87.72
54554;BME280;40450;55.848;-3.572;2022-11-04T04:30:20;98574.11;;;-0.54;90.20
54554;BME280;40450;55.848;-3.572;2022-11-04T04:32:54;98574.64;;;-1.49;92.57
54554;BME280;40450;55.848;-3.572;2022-11-04T04:35:25;98578.11;;;-1.41;93.00
54554;BME280;40450;55.848;-3.572;2022-11-04T04:37:55;98581.61;;;-0.81;92.34
54554;BME280;40450;55.848;-3.572;2022-11-04T04:40:25;98588.90;;;-0.09;90.32
54554;BME280;40450;55.848;-3.572;2022-11-04T04:42:53;98585.67;;;0.52;88.55
54554;BME280;40450;55.848;-3.572;2022-11-04T04:45:29;98591.44;;;1.60;86.71
54554;BME280;40450;55.848;-3.572;2022-11-04T04:47:54;98598.30;;;1.91;84.42
54554;BME280;40450;55.848;-3.572;2022-11-04T04:50:27;98598.56;;;2.01;84.69
54554;BME280;40450;55.848;-3.572;2022-11-04T04:52:56;98601.71;;;2.14;83.69
54554;BME280;40450;55.848;-3.572;2022-11-04T04:55:25;98599.37;;;2.18;84.25
54554;BME280;40450;55.848;-3.572;2022-11-04T04:57:56;98597.63;;;1.54;84.95
54554;BME280;40450;55.848;-3.572;2022-11-04T05:00:26;98599.06;;;1.87;84.49
54554;BME280;40450;55.848;-3.572;2022-11-04T05:02:56;98594.94;;;2.03;84.58
54554;BME280;40450;55.848;-3.572;2022-11-04T05:05:27;98597.16;;;1.92;84.47
54554;BME280;40450;55.848;-3.572;2022-11-04T05:08:03;98600.09;;;2.21;84.24
54554;BME280;40450;55.848;-3.572;2022-11-04T05:10:28;98599.04;;;2.06;84.15
54554;BME280;40450;55.848;-3.572;2022-11-04T05:12:59;98603.25;;;1.34;86.00
54554;BME280;40450;55.848;-3.572;2022-11-04T05:15:30;98609.03;;;0.24;88.98
54554;BME280;40450;55.848;-3.572;2022-11-04T05:18:00;98618.01;;;-0.53;90.61
54554;BME280;40450;55.848;-3.572;2022-11-04T05:20:30;98619.24;;;-0.78;91.87
54554;BME280;40450;55.848;-3.572;2022-11-04T05:23:00;98619.97;;;-0.30;90.49
54554;BME280;40450;55.848;-3.572;2022-11-04T05:25:31;98618.62;;;0.77;88.11
54554;BME280;40450;55.848;-3.572;2022-11-04T05:28:01;98617.02;;;1.61;86.76
54554;BME280;40450;55.848;-3.572;2022-11-04T05:30:34;98616.46;;;2.42;85.92
54554;BME280;40450;55.848;-3.572;2022-11-04T05:33:03;98618.80;;;2.44;84.47
54554;BME280;40450;55.848;-3.572;2022-11-04T05:35:33;98621.59;;;2.26;83.81
54554;BME280;40450;55.848;-3.572;2022-11-04T05:38:03;98621.96;;;1.23;86.40
54554;BME280;40450;55.848;-3.572;2022-11-04T05:40:34;98631.13;;;0.55;87.59
54554;BME280;40450;55.848;-3.572;2022-11-04T05:43:04;98631.92;;;-0.48;89.94
54554;BME280;40450;55.848;-3.572;2022-11-04T05:45:35;98636.62;;;-0.97;91.38
54554;BME280;40450;55.848;-3.572;2022-11-04T05:48:05;98634.88;;;-0.39;90.48
54554;BME280;40450;55.848;-3.572;2022-11-04T05:50:36;98639.35;;;-0.22;90.09
54554;BME280;40450;55.848;-3.572;2022-11-04T05:53:07;98637.89;;;0.33;88.88
54554;BME280;40450;55.848;-3.572;2022-11-04T05:55:37;98640.16;;;0.73;87.70
54554;BME280;40450;55.848;-3.572;2022-11-04T05:58:08;98638.32;;;1.00;86.55
54554;BME280;40450;55.848;-3.572;2022-11-04T06:00:38;98648.11;;;0.45;87.57
54554;BME280;40450;55.848;-3.572;2022-11-04T06:03:08;98650.76;;;-0.04;88.84
54554;BME280;40450;55.848;-3.572;2022-11-04T06:05:39;98649.94;;;-1.26;92.06
54554;BME280;40450;55.848;-3.572;2022-11-04T06:08:09;98654.53;;;-1.20;92.26
54554;BME280;40450;55.848;-3.572;2022-11-04T06:10:40;98656.98;;;-1.13;92.97
54554;BME280;40450;55.848;-3.572;2022-11-04T06:13:10;98653.99;;;-1.14;92.47
54554;BME280;40450;55.848;-3.572;2022-11-04T06:15:41;98660.45;;;-1.12;92.79
54554;BME280;40450;55.848;-3.572;2022-11-04T06:18:11;98659.40;;;-0.70;92.28
54554;BME280;40450;55.848;-3.572;2022-11-04T06:20:41;98657.38;;;-0.78;92.72
54554;BME280;40450;55.848;-3.572;2022-11-04T06:23:12;98658.54;;;-0.36;92.30
54554;BME280;40450;55.848;-3.572;2022-11-04T06:25:43;98667.48;;;0.06;91.75
54554;BME280;40450;55.848;-3.572;2022-11-04T06:28:13;98668.99;;;-0.05;92.41
54554;BME280;40450;55.848;-3.572;2022-11-04T06:30:44;98669.18;;;0.27;92.19
54554;BME280;40450;55.848;-3.572;2022-11-04T06:33:14;98668.84;;;0.71;92.27
54554;BME280;40450;55.848;-3.572;2022-11-04T06:35:45;98673.31;;;0.81;91.43
54554;BME280;40450;55.848;-3.572;2022-11-04T06:38:15;98676.74;;;0.83;91.24
54554;BME280;40450;55.848;-3.572;2022-11-04T06:40:45;98689.09;;;0.97;91.29
54554;BME280;40450;55.848;-3.572;2022-11-04T06:43:22;98688.31;;;1.30;90.88
54554;BME280;40450;55.848;-3.572;2022-11-04T06:45:52;98686.30;;;1.28;91.06
54554;BME280;40450;55.848;-3.572;2022-11-04T06:48:17;98684.41;;;1.48;91.13
54554;BME280;40450;55.848;-3.572;2022-11-04T06:50:47;98688.60;;;1.59;90.69
54554;BME280;40450;55.848;-3.572;2022-11-04T06:53:18;98694.45;;;1.80;90.14
54554;BME280;40450;55.848;-3.572;2022-11-04T06:55:49;98700.27;;;1.96;89.93
54554;BME280;40450;55.848;-3.572;2022-11-04T06:58:19;98699.47;;;2.78;88.80
54554;BME280;40450;55.848;-3.572;2022-11-04T07:00:50;98695.70;;;2.77;87.92
54554;BME280;40450;55.848;-3.572;2022-11-04T07:03:20;98697.30;;;2.81;88.55
54554;BME280;40450;55.848;-3.572;2022-11-04T07:05:50;98695.57;;;2.46;89.20
54554;BME280;40450;55.848;-3.572;2022-11-04T07:08:21;98694.16;;;2.44;89.54
54554;BME280;40450;55.848;-3.572;2022-11-04T07:10:54;98695.38;;;2.24;90.18
54554;BME280;40450;55.848;-3.572;2022-11-04T07:13:22;98694.55;;;2.37;90.66
54554;BME280;40450;55.848;-3.572;2022-11-04T07:15:52;98691.69;;;3.10;89.18
54554;BME280;40450;55.848;-3.572;2022-11-04T07:18:22;98689.48;;;4.69;88.40
54554;BME280;40450;55.848;-3.572;2022-11-04T07:20:53;98687.83;;;4.46;85.75
54554;BME280;40450;55.848;-3.572;2022-11-04T07:23:23;98694.05;;;4.01;86.38
54554;BME280;40450;55.848;-3.572;2022-11-04T07:25:59;98709.10;;;3.08;87.89
54554;BME280;40450;55.848;-3.572;2022-11-04T07:28:24;98709.22;;;3.18;87.80
54554;BME280;40450;55.848;-3.572;2022-11-04T07:30:56;98712.67;;;3.00;88.62
54554;BME280;40450;55.848;-3.572;2022-11-04T07:33:26;98712.81;;;3.25;87.49
54554;BME280;40450;55.848;-3.572;2022-11-04T07:35:56;98708.63;;;2.85;88.54
54554;BME280;40450;55.848;-3.572;2022-11-04T07:38:27;98706.93;;;2.62;89.16
54554;BME280;40450;55.848;-3.572;2022-11-04T07:40:58;98708.34;;;2.47;89.93
54554;BME280;40450;55.848;-3.572;2022-11-04T07:43:28;98708.39;;;2.29;90.34
54554;BME280;40450;55.848;-3.572;2022-11-04T07:45:59;98715.83;;;2.26;90.82
54554;BME280;40450;55.848;-3.572;2022-11-04T07:48:29;98719.19;;;2.60;90.18
54554;BME280;40450;55.848;-3.572;2022-11-04T07:51:00;98716.20;;;2.79;89.91
54554;BME280;40450;55.848;-3.572;2022-11-04T07:53:30;98712.60;;;2.74;89.92
54554;BME280;40450;55.848;-3.572;2022-11-04T07:56:03;98712.03;;;2.48;90.60
54554;BME280;40450;55.848;-3.572;2022-11-04T07:58:31;98713.02;;;1.69;92.09
54554;BME280;40450;55.848;-3.572;2022-11-04T08:01:08;98710.75;;;1.83;92.82
54554;BME280;40450;55.848;-3.572;2022-11-04T08:03:32;98718.05;;;1.98;92.31
54554;BME280;40450;55.848;-3.572;2022-11-04T08:06:05;98725.46;;;2.08;92.17
54554;BME280;40450;55.848;-3.572;2022-11-04T08:08:33;98730.86;;;2.06;92.14
54554;BME280;40450;55.848;-3.572;2022-11-04T08:11:06;98737.62;;;2.25;91.64
54554;BME280;40450;55.848;-3.572;2022-11-04T08:13:35;98740.05;;;2.72;90.72
54554;BME280;40450;55.848;-3.572;2022-11-04T08:16:07;98738.49;;;3.40;89.34
54554;BME280;40450;55.848;-3.572;2022-11-04T08:18:35;98729.09;;;4.33;87.78
54554;BME280;40450;55.848;-3.572;2022-11-04T08:21:05;98730.41;;;4.55;87.80
54554;BME280;40450;55.848;-3.572;2022-11-04T08:23:35;98727.02;;;4.97;87.60
54554;BME280;40450;55.848;-3.572;2022-11-04T08:26:07;98728.43;;;5.29;86.91
54554;BME280;40450;55.848;-3.572;2022-11-04T08:28:36;98730.66;;;5.36;87.47
54554;BME280;40450;55.848;-3.572;2022-11-04T08:31:09;98730.13;;;5.66;87.13
54554;BME280;40450;55.848;-3.572;2022-11-04T08:33:37;98728.13;;;6.16;86.36
54554;BME280;40450;55.848;-3.572;2022-11-04T08:36:09;98726.63;;;6.38;85.48
54554;BME280;40450;55.848;-3.572;2022-11-04T08:38:38;98730.35;;;6.55;85.75
54554;BME280;40450;55.848;-3.572;2022-11-04T08:41:09;98728.82;;;6.66;85.15
54554;BME280;40450;55.848;-3.572;2022-11-04T08:43:38;98721.71;;;6.37;86.09
54554;BME280;40450;55.848;-3.572;2022-11-04T08:46:09;98718.53;;;6.18;87.05
54554;BME280;40450;55.848;-3.572;2022-11-04T08:48:40;98723.97;;;6.05;87.38
54554;BME280;40450;55.848;-3.572;2022-11-04T08:51:13;98727.04;;;5.80;88.31
54554;BME280;40450;55.848;-3.572;2022-11-04T08:53:40;98728.84;;;6.39;87.63
54554;BME280;40450;55.848;-3.572;2022-11-04T08:56:12;98720.23;;;6.92;85.52
54554;BME280;40450;55.848;-3.572;2022-11-04T08:58:41;98718.56;;;6.69;86.41
54554;BME280;40450;55.848;-3.572;2022-11-04T09:01:11;98721.80;;;5.68;87.89
54554;BME280;40450;55.848;-3.572;2022-11-04T09:03:42;98723.26;;;5.36;89.29
54554;BME280;40450;55.848;-3.572;2022-11-04T09:06:14;98726.49;;;5.51;89.48
54554;BME280;40450;55.848;-3.572;2022-11-04T09:08:43;98730.06;;;5.89;88.66
54554;BME280;40450;55.848;-3.572;2022-11-04T09:11:14;98733.77;;;6.62;87.40
54554;BME280;40450;55.848;-3.572;2022-11-04T09:13:43;98737.69;;;6.72;87.14
54554;BME280;40450;55.848;-3.572;2022-11-04T09:16:14;98743.56;;;6.98;86.41
54554;BME280;40450;55.848;-3.572;2022-11-04T09:18:44;98741.07;;;7.25;85.99
54554;BME280;40450;55.848;-3.572;2022-11-04T09:21:15;98744.05;;;6.48;87.40
54554;BME280;40450;55.848;-3.572;2022-11-04T09:23:45;98754.73;;;5.60;89.99
54554;BME280;40450;55.848;-3.572;2022-11-04T09:26:16;98751.36;;;5.90;89.02
54554;BME280;40450;55.848;-3.572;2022-11-04T09:28:46;98752.45;;;5.55;89.84
54554;BME280;40450;55.848;-3.572;2022-11-04T09:31:18;98753.05;;;5.95;89.70
54554;BME280;40450;55.848;-3.572;2022-11-04T09:33:47;98753.81;;;6.40;88.80
54554;BME280;40450;55.848;-3.572;2022-11-04T09:36:17;98751.28;;;6.59;88.41
54554;BME280;40450;55.848;-3.572;2022-11-04T09:38:47;98744.79;;;6.18;89.32
54554;BME280;40450;55.848;-3.572;2022-11-04T09:43:53;98748.69;;;6.72;88.10
54554;BME280;40450;55.848;-3.572;2022-11-04T09:46:19;98741.15;;;6.70;88.63
54554;BME280;40450;55.848;-3.572;2022-11-04T09:48:51;98737.99;;;7.28;87.23
54554;BME280;40450;55.848;-3.572;2022-11-04T09:51:23;98736.29;;;6.80;88.48
54554;BME280;40450;55.848;-3.572;2022-11-04T09:53:51;98735.19;;;7.41;87.46
54554;BME280;40450;55.848;-3.572;2022-11-04T09:56:21;98742.73;;;7.63;87.59
54554;BME280;40450;55.848;-3.572;2022-11-04T09:58:51;98739.38;;;7.56;87.59
54554;BME280;40450;55.848;-3.572;2022-11-04T10:01:27;98743.29;;;7.63;87.73
54554;BME280;40450;55.848;-3.572;2022-11-04T10:04:00;98757.63;;;8.09;87.02
54554;BME280;40450;55.848;-3.572;2022-11-04T10:06:30;98756.32;;;7.65;87.59
54554;BME280;40450;55.848;-3.572;2022-11-04T10:09:02;98760.51;;;8.29;86.26
54554;BME280;40450;55.848;-3.572;2022-11-04T10:11:27;98761.77;;;8.19;85.31
54554;BME280;40450;55.848;-3.572;2022-11-04T10:16:33;98768.02;;;8.96;84.58
54554;BME280;40450;55.848;-3.572;2022-11-04T10:19:06;98768.73;;;8.85;84.15
54554;BME280;40450;55.848;-3.572;2022-11-04T10:21:33;98761.72;;;9.57;82.35
54554;BME280;40450;55.848;-3.572;2022-11-04T10:24:05;98763.74;;;9.27;83.10
54554;BME280;40450;55.848;-3.572;2022-11-04T10:26:31;98762.89;;;9.56;82.18
54554;BME280;40450;55.848;-3.572;2022-11-04T10:29:00;98758.75;;;9.63;81.98
54554;BME280;40450;55.848;-3.572;2022-11-04T10:31:25;98767.23;;;9.20;83.17
54554;BME280;40450;55.848;-3.572;2022-11-04T10:34:02;98763.93;;;8.92;84.16
54554;BME280;40450;55.848;-3.572;2022-11-04T10:36:26;98753.80;;;9.35;83.58
54554;BME280;40450;55.848;-3.572;2022-11-04T10:38:57;98758.63;;;9.09;84.25
54554;BME280;40450;55.848;-3.572;2022-11-04T10:41:31;98761.68;;;9.24;84.30
54554;BME280;40450;55.848;-3.572;2022-11-04T10:44:02;98763.57;;;9.05;84.00
54554;BME280;40450;55.848;-3.572;2022-11-04T10:46:36;98755.31;;;9.98;83.22
54554;BME280;40450;55.848;-3.572;2022-11-04T10:49:02;98753.74;;;10.65;81.56
54554;BME280;40450;55.848;-3.572;2022-11-04T10:51:28;98749.53;;;10.24;82.55
54554;BME280;40450;55.848;-3.572;2022-11-04T10:53:59;98752.23;;;9.84;81.86
54554;BME280;40450;55.848;-3.572;2022-11-04T10:56:36;98751.86;;;10.39;80.92
54554;BME280;40450;55.848;-3.572;2022-11-04T10:59:08;98752.86;;;9.71;81.95
54554;BME280;40450;55.848;-3.572;2022-11-04T11:01:32;98756.87;;;10.60;81.17
54554;BME280;40450;55.848;-3.572;2022-11-04T11:04:01;98763.46;;;10.30;81.33
54554;BME280;40450;55.848;-3.572;2022-11-04T11:06:32;98768.36;;;9.28;84.20
54554;BME280;40450;55.848;-3.572;2022-11-04T11:09:11;98762.72;;;10.01;82.73
54554;BME280;40450;55.848;-3.572;2022-11-04T11:11:38;98770.56;;;9.41;83.76
54554;BME280;40450;55.848;-3.572;2022-11-04T11:14:02;98769.61;;;9.63;83.60
54554;BME280;40450;55.848;-3.572;2022-11-04T11:16:32;98765.74;;;9.60;83.95
54554;BME280;40450;55.848;-3.572;2022-11-04T11:19:12;98767.77;;;9.86;83.25
54554;BME280;40450;55.848;-3.572;2022-11-04T11:21:41;98768.05;;;8.81;85.97
54554;BME280;40450;55.848;-3.572;2022-11-04T11:24:13;98758.72;;;9.28;84.49
54554;BME280;40450;55.848;-3.572;2022-11-04T11:26:34;98760.41;;;9.68;83.81
54554;BME280;40450;55.848;-3.572;2022-11-04T11:29:09;98767.46;;;9.97;83.10
54554;BME280;40450;55.848;-3.572;2022-11-04T11:31:35;98768.40;;;10.22;82.83
54554;BME280;40450;55.848;-3.572;2022-11-04T11:34:12;98774.23;;;10.99;80.91
54554;BME280;40450;55.848;-3.572;2022-11-04T11:36:36;98775.91;;;10.72;81.21
54554;BME280;40450;55.848;-3.572;2022-11-04T11:39:13;98779.56;;;10.32;81.93
54554;BME280;40450;55.848;-3.572;2022-11-04T11:46:37;98772.54;;;10.47;81.26
54554;BME280;40450;55.848;-3.572;2022-11-04T11:51:38;98768.49;;;11.86;80.41
54554;BME280;40450;55.848;-3.572;2022-11-04T11:54:16;98775.28;;;10.74;81.10
54554;BME280;40450;55.848;-3.572;2022-11-04T11:56:41;98777.69;;;11.51;79.27
54554;BME280;40450;55.848;-3.572;2022-11-04T11:59:19;98777.35;;;11.41;78.13
54554;BME280;40450;55.848;-3.572;2022-11-04T12:01:42;98779.28;;;10.59;79.52
54554;BME280;40450;55.848;-3.572;2022-11-04T12:04:09;98781.39;;;11.06;79.70
54554;BME280;40450;55.848;-3.572;2022-11-04T12:06:46;98787.74;;;11.29;79.40
54554;BME280;40450;55.848;-3.572;2022-11-04T12:09:17;98786.29;;;11.29;78.30
54554;BME280;40450;55.848;-3.572;2022-11-04T12:11:52;98786.87;;;11.29;79.32
54554;BME280;40450;55.848;-3.572;2022-11-04T12:14:17;98793.57;;;11.42;78.86
54554;BME280;40450;55.848;-3.572;2022-11-04T12:16:48;98797.33;;;10.93;78.90
54554;BME280;40450;55.848;-3.572;2022-11-04T12:19:20;98805.22;;;11.33;79.19
54554;BME280;40450;55.848;-3.572;2022-11-04T12:21:47;98806.52;;;8.52;86.17
54554;BME280;40450;55.848;-3.572;2022-11-04T12:24:20;98807.23;;;9.53;83.35
54554;BME280;40450;55.848;-3.572;2022-11-04T12:26:47;98809.01;;;11.56;80.20
54554;BME280;40450;55.848;-3.572;2022-11-04T12:29:24;98819.19;;;11.40;78.00
54554;BME280;40450;55.848;-3.572;2022-11-04T12:31:50;98811.77;;;11.61;79.36
54554;BME280;40450;55.848;-3.572;2022-11-04T12:34:23;98808.72;;;10.51;81.34
54554;BME280;40450;55.848;-3.572;2022-11-04T12:36:55;98811.54;;;8.57;87.19
54554;BME280;40450;55.848;-3.572;2022-11-04T12:39:27;98799.49;;;10.59;82.83
54554;BME280;40450;55.848;-3.572;2022-11-04T12:41:51;98800.18;;;11.25;79.94
54554;BME280;40450;55.848;-3.572;2022-11-04T12:44:24;98800.40;;;11.16;79.57
54554;BME280;40450;55.848;-3.572;2022-11-04T12:46:51;98803.49;;;10.89;79.60
54554;BME280;40450;55.848;-3.572;2022-11-04T12:51:53;98806.35;;;10.23;81.35
54554;BME280;40450;55.848;-3.572;2022-11-04T12:54:26;98799.31;;;11.33;80.02
54554;BME280;40450;55.848;-3.572;2022-11-04T12:56:52;98797.96;;;11.03;79.42
54554;BME280;40450;55.848;-3.572;2022-11-04T12:59:33;98795.47;;;11.31;78.65
54554;BME280;40450;55.848;-3.572;2022-11-04T13:01:51;98790.73;;;11.89;77.91
54554;BME280;40450;55.848;-3.572;2022-11-04T13:04:20;98787.34;;;12.18;77.56
54554;BME280;40450;55.848;-3.572;2022-11-04T13:06:51;98791.03;;;11.77;78.93
54554;BME280;40450;55.848;-3.572;2022-11-04T13:09:28;98790.76;;;11.66;76.58
54554;BME280;40450;55.848;-3.572;2022-11-04T13:11:54;98792.54;;;7.85;87.36
54554;BME280;40450;55.848;-3.572;2022-11-04T13:14:23;98787.26;;;8.00;88.39
54554;BME280;40450;55.848;-3.572;2022-11-04T13:16:52;98776.94;;;9.91;82.28
54554;BME280;40450;55.848;-3.572;2022-11-04T13:19:26;98778.06;;;10.34;81.52
54554;BME280;40450;55.848;-3.572;2022-11-04T13:21:52;98780.83;;;10.06;82.37
54554;BME280;40450;55.848;-3.572;2022-11-04T13:24:25;98781.98;;;10.71;81.61
54554;BME280;40450;55.848;-3.572;2022-11-04T13:26:52;98776.72;;;11.36;79.57
54554;BME280;40450;55.848;-3.572;2022-11-04T13:29:26;98773.34;;;11.46;78.42
54554;BME280;40450;55.848;-3.572;2022-11-04T13:34:31;98771.20;;;12.02;74.64